Time;durP1;ratioP1;P1;durP2;ratioP2;P2;SDS_P1;SDS_P2;PMS_P1;PMS_P2;Temp;Humidity;BMP_temperature;BMP_pressure;BME280_temperature;BME280_humidity;BME280_pressure;Samples;Min_cycle;Max_cycle;Signal;HPM_P1;HPM_P2
2022/12/28 00:01:15;;;;;;;6.47;2.05;;;6.40;99.90;;;;;;5020196;28;20041;-72
2022/12/28 00:03:42;;;;;;;7.38;2.42;;;6.40;99.90;;;;;;5020009;28;20029;-72
2022/12/28 00:06:08;;;;;;;12.25;2.70;;;6.30;99.90;;;;;;5016511;28;20034;-72
2022/12/28 00:08:33;;;;;;;6.65;2.20;;;6.40;99.90;;;;;;5019100;28;20068;-72
2022/12/28 00:11:07;;;;;;;7.90;2.35;;;6.40;99.90;;;;;;5001139;28;20485;-71
2022/12/28 00:13:34;;;;;;;7.35;1.65;;;6.40;99.90;;;;;;5001087;28;20087;-71
2022/12/28 00:16:29;;;;;;;6.28;2.33;;;6.40;99.90;;;;;;5019297;28;20120;-72
2022/12/28 00:18:56;;;;;;;9.95;2.83;;;6.40;99.90;;;;;;5012053;28;20033;-71
2022/12/28 00:21:22;;;;;;;8.93;2.10;;;6.40;99.90;;;;;;5014044;28;20131;-72
2022/12/28 00:23:52;;;;;;;7.78;2.47;;;6.40;99.90;;;;;;5017193;28;20034;-72
2022/12/28 00:26:19;;;;;;;9.52;2.67;;;6.40;99.90;;;;;;5011973;28;20041;-72
2022/12/28 00:28:44;;;;;;;8.15;1.75;;;6.50;99.90;;;;;;5017389;28;20124;-71
2022/12/28 00:31:11;;;;;;;7.88;1.90;;;6.50;99.90;;;;;;5018743;28;20129;-72
2022/12/28 00:33:36;;;;;;;6.90;2.17;;;6.50;99.90;;;;;;4999996;28;20501;-72
2022/12/28 00:36:03;;;;;;;11.23;2.60;;;6.50;99.90;;;;;;5000887;28;20038;-72
2022/12/28 00:38:32;;;;;;;5.53;2.25;;;6.50;99.90;;;;;;5014934;28;20046;-72
2022/12/28 00:40:58;;;;;;;4.53;1.70;;;6.60;99.90;;;;;;5019659;28;20432;-72
2022/12/28 00:43:24;;;;;;;11.90;2.58;;;6.50;99.90;;;;;;5016407;28;20225;-72
2022/12/28 00:45:50;;;;;;;6.43;2.28;;;6.60;99.90;;;;;;5002333;28;20520;-74
2022/12/28 00:48:16;;;;;;;5.63;2.13;;;6.60;99.90;;;;;;5020219;28;20041;-72
2022/12/28 00:50:42;;;;;;;9.57;3.33;;;6.60;99.90;;;;;;5017568;28;20030;-72
2022/12/28 00:53:08;;;;;;;6.10;2.35;;;6.70;99.90;;;;;;5018238;28;20105;-72
2022/12/28 00:55:34;;;;;;;4.93;1.65;;;6.70;99.90;;;;;;5017865;28;20037;-72
2022/12/28 00:58:01;;;;;;;6.35;2.13;;;6.80;99.90;;;;;;5000654;28;20089;-72
2022/12/28 01:00:27;;;;;;;8.50;2.15;;;6.80;99.90;;;;;;5018501;28;20072;-72
2022/12/28 01:02:53;;;;;;;8.00;2.95;;;6.80;99.90;;;;;;5000812;28;20144;-72
2022/12/28 01:05:20;;;;;;;7.15;2.35;;;6.80;99.90;;;;;;4998070;28;20041;-72
2022/12/28 01:07:45;;;;;;;8.02;1.77;;;6.90;99.90;;;;;;5012326;28;20075;-72
2022/12/28 01:10:11;;;;;;;4.75;1.92;;;6.80;99.90;;;;;;5014449;28;20034;-72
2022/12/28 01:12:37;;;;;;;5.07;2.13;;;6.90;99.90;;;;;;5021248;28;20045;-73
2022/12/28 01:15:04;;;;;;;6.75;2.20;;;6.90;99.90;;;;;;4997110;28;20100;-72
2022/12/28 01:17:30;;;;;;;10.13;2.40;;;6.90;99.90;;;;;;5017164;28;20038;-72
2022/12/28 01:19:55;;;;;;;5.70;2.13;;;7.00;99.90;;;;;;5007721;28;20510;-72
2022/12/28 01:22:21;;;;;;;6.93;3.33;;;7.00;99.90;;;;;;5009760;28;20053;-72
2022/12/28 01:24:47;;;;;;;7.43;2.28;;;7.00;99.90;;;;;;5018771;28;20037;-72
2022/12/28 01:27:12;;;;;;;9.02;2.30;;;7.00;99.90;;;;;;4996410;28;20064;-72
2022/12/28 01:29:38;;;;;;;4.68;2.40;;;7.00;99.90;;;;;;5012009;28;20053;-72
2022/12/28 01:32:04;;;;;;;3.83;2.00;;;7.10;99.90;;;;;;5016936;28;20029;-72
2022/12/28 01:34:29;;;;;;;8.88;2.70;;;7.10;99.90;;;;;;5015481;28;20045;-73
2022/12/28 01:36:55;;;;;;;10.63;2.30;;;7.10;99.90;;;;;;5016955;28;20634;-70
2022/12/28 01:39:21;;;;;;;7.80;2.15;;;7.20;99.90;;;;;;5015458;28;20208;-72
2022/12/28 01:41:46;;;;;;;8.98;2.53;;;7.20;99.90;;;;;;5017778;28;20044;-72
2022/12/28 01:44:12;;;;;;;8.15;2.70;;;7.20;99.90;;;;;;4997199;28;20037;-72
2022/12/28 01:46:54;;;;;;;4.45;2.08;;;7.20;99.90;;;;;;5019049;28;20379;-72
2022/12/28 01:49:25;;;;;;;8.60;2.88;;;7.30;99.90;;;;;;5012217;28;20029;-74
2022/12/28 01:51:53;;;;;;;6.65;2.60;;;7.30;99.90;;;;;;5019559;28;20081;-71
2022/12/28 01:54:21;;;;;;;9.15;2.88;;;7.30;99.90;;;;;;5014261;28;20033;-71
2022/12/28 01:56:48;;;;;;;5.97;1.98;;;7.30;99.90;;;;;;5017418;28;20037;-72
2022/12/28 01:59:17;;;;;;;10.40;2.65;;;7.30;99.90;;;;;;5014530;28;20057;-73
2022/12/28 02:01:42;;;;;;;9.23;2.83;;;7.40;99.90;;;;;;4994726;28;20117;-73
2022/12/28 02:04:08;;;;;;;6.60;2.85;;;7.40;99.90;;;;;;5017589;28;20168;-72
2022/12/28 02:06:34;;;;;;;5.63;2.70;;;7.40;99.90;;;;;;5015928;28;20033;-72
2022/12/28 02:09:06;;;;;;;6.93;2.70;;;7.30;99.90;;;;;;5018845;28;20115;-72
2022/12/28 02:11:32;;;;;;;7.15;2.40;;;7.30;99.90;;;;;;5016044;28;20117;-72
2022/12/28 02:13:58;;;;;;;5.65;2.25;;;7.30;99.90;;;;;;5017677;28;20121;-72
2022/12/28 02:16:24;;;;;;;6.63;2.40;;;7.20;99.90;;;;;;5016060;28;20040;-72
2022/12/28 02:18:51;;;;;;;5.55;2.20;;;7.20;99.90;;;;;;4999111;28;20038;-73
2022/12/28 02:21:34;;;;;;;5.88;1.95;;;7.20;99.90;;;;;;5012331;28;20025;-71
2022/12/28 02:24:06;;;;;;;12.75;2.70;;;7.20;99.90;;;;;;5015009;28;20034;-72
2022/12/28 02:26:50;;;;;;;9.50;2.42;;;7.20;99.90;;;;;;5009079;28;20030;-72
2022/12/28 02:29:30;;;;;;;7.90;2.53;;;7.20;99.90;;;;;;5012751;28;20429;-72
2022/12/28 02:32:23;;;;;;;5.68;2.60;;;7.20;99.90;;;;;;5017013;28;20053;-70
2022/12/28 02:35:04;;;;;;;4.63;2.55;;;7.30;99.90;;;;;;5013311;28;20038;-72
2022/12/28 02:37:47;;;;;;;7.13;3.05;;;7.20;99.90;;;;;;5015955;28;20120;-73
2022/12/28 02:40:19;;;;;;;6.15;2.22;;;7.20;99.90;;;;;;5010215;28;20045;-73
2022/12/28 02:42:45;;;;;;;9.70;2.95;;;7.30;99.90;;;;;;5014650;28;20030;-72
2022/12/28 02:51:18;;;;;;;6.25;3.17;;;7.30;99.90;;;;;;5016475;28;20104;-72
2022/12/28 02:57:29;;;;;;;6.82;2.53;;;7.30;99.90;;;;;;4918348;29;20102;-74
2022/12/28 03:00:14;;;;;;;5.70;3.25;;;7.40;99.90;;;;;;5015815;28;20042;-73
2022/12/28 03:03:11;;;;;;;5.47;2.70;;;7.40;99.90;;;;;;5011426;28;20088;-72
2022/12/28 03:08:48;;;;;;;8.30;3.00;;;7.40;99.90;;;;;;5011952;28;20033;-72
2022/12/28 03:11:18;;;;;;;7.57;3.72;;;7.40;99.90;;;;;;5007186;28;20034;-72
2022/12/28 03:14:00;;;;;;;6.88;2.85;;;7.40;99.90;;;;;;5022198;28;20112;-71
2022/12/28 03:16:31;;;;;;;5.20;2.95;;;7.40;99.90;;;;;;5001708;28;20038;-72
2022/12/28 03:33:02;;;;;;;6.55;2.90;;;7.60;99.90;;;;;;5018529;28;20409;-73
2022/12/28 03:36:00;;;;;;;6.97;2.50;;;7.60;99.90;;;;;;5019943;28;20056;-70
2022/12/28 03:38:45;;;;;;;8.48;2.80;;;7.60;99.90;;;;;;5013139;28;20042;-73
2022/12/28 03:41:18;;;;;;;5.13;2.83;;;7.60;99.90;;;;;;5014737;28;20026;-72
2022/12/28 03:43:50;;;;;;;6.57;3.25;;;7.70;99.90;;;;;;5021216;28;20049;-71
2022/12/28 03:46:28;;;;;;;5.18;2.30;;;7.70;99.90;;;;;;5017511;28;20057;-71
2022/12/28 03:48:56;;;;;;;5.88;2.90;;;7.70;99.90;;;;;;5001100;28;20033;-72
2022/12/28 03:51:23;;;;;;;5.85;2.53;;;7.80;99.90;;;;;;5018122;28;20049;-72
2022/12/28 03:53:49;;;;;;;4.50;2.38;;;7.80;99.90;;;;;;5019978;28;20036;-72
2022/12/28 03:56:21;;;;;;;6.28;4.38;;;7.80;99.90;;;;;;4999521;28;20033;-74
2022/12/28 03:58:47;;;;;;;6.90;3.40;;;7.90;99.90;;;;;;5020588;28;20049;-72
2022/12/28 04:01:13;;;;;;;6.88;3.08;;;7.90;99.90;;;;;;5017462;28;20116;-72
2022/12/28 04:03:39;;;;;;;10.85;2.42;;;8.00;99.90;;;;;;5021046;28;20103;-72
2022/12/28 04:06:05;;;;;;;7.13;2.95;;;8.10;99.90;;;;;;4999953;28;20038;-72
2022/12/28 04:08:32;;;;;;;8.95;2.28;;;8.10;99.90;;;;;;5020695;28;20052;-72
2022/12/28 04:10:59;;;;;;;3.63;2.45;;;8.20;99.90;;;;;;5018077;28;20565;-72
2022/12/28 04:13:27;;;;;;;6.07;2.60;;;8.20;99.90;;;;;;5018861;28;20045;-73
2022/12/28 04:16:05;;;;;;;6.75;2.22;;;8.20;99.90;;;;;;5018724;28;20033;-72
2022/12/28 04:18:33;;;;;;;5.85;2.63;;;8.20;99.90;;;;;;5002268;28;20517;-72
2022/12/28 04:20:59;;;;;;;4.60;2.22;;;8.20;99.90;;;;;;5017397;28;20040;-73
2022/12/28 04:23:26;;;;;;;11.65;2.45;;;8.20;99.90;;;;;;5018798;28;20030;-72
2022/12/28 04:26:03;;;;;;;5.95;2.30;;;8.20;99.90;;;;;;5018494;28;20038;-72
2022/12/28 04:28:30;;;;;;;6.50;2.20;;;8.20;99.90;;;;;;5001693;28;20149;-72
2022/12/28 04:30:56;;;;;;;5.40;2.60;;;8.20;99.90;;;;;;5018525;28;20059;-71
2022/12/28 04:33:22;;;;;;;4.97;2.50;;;8.20;99.90;;;;;;5018622;28;20548;-72
2022/12/28 04:35:48;;;;;;;6.55;3.65;;;8.20;99.90;;;;;;5019568;28;20413;-71
2022/12/28 04:38:14;;;;;;;8.48;3.10;;;8.30;99.90;;;;;;5017261;28;20030;-71
2022/12/28 04:40:40;;;;;;;5.22;2.28;;;8.30;99.90;;;;;;5018623;28;20044;-72
2022/12/28 04:43:05;;;;;;;7.43;2.10;;;8.20;99.90;;;;;;5016278;28;20030;-74
2022/12/28 04:45:31;;;;;;;5.35;2.35;;;8.20;99.90;;;;;;5011051;28;20095;-72
2022/12/28 04:47:57;;;;;;;10.77;2.78;;;8.10;99.90;;;;;;5014762;28;20040;-72
2022/12/28 04:50:24;;;;;;;4.07;2.03;;;8.30;99.90;;;;;;5016816;28;20042;-72
2022/12/28 04:52:50;;;;;;;5.95;2.20;;;8.20;99.90;;;;;;5018813;28;20033;-71
2022/12/28 04:55:16;;;;;;;5.13;2.17;;;8.30;99.90;;;;;;5016389;28;20041;-72
2022/12/28 04:57:45;;;;;;;3.22;1.67;;;8.20;99.90;;;;;;5017915;28;20034;-72
2022/12/28 05:00:12;;;;;;;5.35;2.50;;;8.20;99.90;;;;;;5018679;28;20029;-73
2022/12/28 05:02:38;;;;;;;6.28;1.75;;;8.30;99.90;;;;;;4999636;28;20029;-73
2022/12/28 05:05:04;;;;;;;5.50;1.58;;;8.30;99.90;;;;;;5020510;28;20045;-71
2022/12/28 05:07:30;;;;;;;6.30;2.03;;;8.30;99.90;;;;;;4998471;28;20116;-72
2022/12/28 05:09:55;;;;;;;4.18;1.30;;;8.40;99.90;;;;;;5017402;28;20030;-72
2022/12/28 05:12:21;;;;;;;6.25;1.75;;;8.30;99.90;;;;;;4999940;28;20045;-72
2022/12/28 05:14:47;;;;;;;5.15;2.03;;;8.40;99.90;;;;;;5018412;28;20030;-71
2022/12/28 05:17:12;;;;;;;4.82;1.52;;;8.40;99.90;;;;;;5014074;28;20771;-72
2022/12/28 05:19:38;;;;;;;3.83;1.23;;;8.40;99.90;;;;;;5016639;28;20073;-72
2022/12/28 05:22:04;;;;;;;4.38;1.92;;;8.40;99.90;;;;;;5018196;28;20099;-73
2022/12/28 05:24:30;;;;;;;4.75;1.30;;;8.50;99.90;;;;;;5015417;28;20638;-72
2022/12/28 05:26:55;;;;;;;6.05;1.50;;;8.50;99.90;;;;;;5013267;28;20041;-72
2022/12/28 05:29:21;;;;;;;2.83;1.70;;;8.50;99.90;;;;;;5016654;28;20048;-72
2022/12/28 05:31:47;;;;;;;3.72;1.30;;;8.60;99.90;;;;;;5017680;28;20076;-72
2022/12/28 05:34:12;;;;;;;5.20;1.27;;;8.60;99.90;;;;;;5015166;28;20164;-72
2022/12/28 05:36:38;;;;;;;4.28;1.10;;;8.60;99.90;;;;;;5016006;28;20406;-73
2022/12/28 05:39:04;;;;;;;3.80;1.42;;;8.60;99.90;;;;;;5018820;28;20033;-72
2022/12/28 05:41:30;;;;;;;7.75;1.50;;;8.60;99.90;;;;;;5019650;28;20033;-73
2022/12/28 05:43:58;;;;;;;4.88;1.10;;;8.60;99.90;;;;;;5015497;28;20080;-72
2022/12/28 05:46:29;;;;;;;4.00;1.40;;;8.60;99.90;;;;;;5017503;28;20065;-73
2022/12/28 05:48:55;;;;;;;3.42;1.10;;;8.60;99.90;;;;;;5018694;28;20106;-73
2022/12/28 05:51:23;;;;;;;2.47;0.90;;;8.60;99.90;;;;;;5015589;28;20068;-72
2022/12/28 05:53:49;;;;;;;2.15;1.20;;;8.70;99.90;;;;;;5017501;28;20030;-71
2022/12/28 05:56:17;;;;;;;2.53;1.27;;;8.60;99.90;;;;;;5016431;28;20490;-72
2022/12/28 05:58:45;;;;;;;4.30;1.15;;;8.60;99.90;;;;;;5017370;28;20149;-72
2022/12/28 06:01:23;;;;;;;4.47;1.40;;;8.70;99.90;;;;;;5016924;28;20037;-73
2022/12/28 06:03:56;;;;;;;3.72;1.05;;;8.70;99.90;;;;;;5017906;28;20042;-74
2022/12/28 06:06:22;;;;;;;2.33;0.90;;;8.70;99.90;;;;;;5014003;28;20128;-72
2022/12/28 06:08:48;;;;;;;2.78;1.00;;;8.70;99.90;;;;;;5017868;28;20450;-72
2022/12/28 06:11:16;;;;;;;4.57;1.00;;;8.80;99.90;;;;;;5016411;28;20033;-72
2022/12/28 06:13:42;;;;;;;2.83;1.20;;;8.80;99.90;;;;;;5016388;28;20509;-72
2022/12/28 06:16:14;;;;;;;2.85;1.10;;;8.80;99.90;;;;;;5016846;28;20037;-72
2022/12/28 06:18:40;;;;;;;2.95;1.00;;;8.80;99.90;;;;;;5016582;28;20506;-72
2022/12/28 06:21:13;;;;;;;3.60;1.10;;;8.90;99.90;;;;;;5018086;28;20048;-72
2022/12/28 06:23:39;;;;;;;2.22;0.82;;;8.80;99.90;;;;;;5017038;28;20038;-73
2022/12/28 06:26:06;;;;;;;2.50;0.90;;;8.80;99.90;;;;;;5015025;28;20486;-70
2022/12/28 06:28:35;;;;;;;3.22;0.90;;;8.80;99.90;;;;;;5011456;28;20037;-73
2022/12/28 06:31:12;;;;;;;2.83;0.63;;;8.90;99.90;;;;;;5015408;28;20034;-74
2022/12/28 06:33:39;;;;;;;1.83;0.90;;;8.90;99.90;;;;;;5016909;28;20037;-73
2022/12/28 06:36:10;;;;;;;1.13;0.63;;;9.00;99.90;;;;;;5015116;28;20676;-72
2022/12/28 06:38:35;;;;;;;3.20;0.80;;;9.00;99.90;;;;;;5016049;28;20042;-71
2022/12/28 06:41:06;;;;;;;3.38;0.70;;;9.00;99.90;;;;;;5015420;28;20037;-72
2022/12/28 06:43:33;;;;;;;1.30;1.10;;;9.00;99.90;;;;;;5018196;28;20045;-73
2022/12/28 06:45:58;;;;;;;2.72;1.05;;;9.00;99.90;;;;;;5019186;28;20079;-73
2022/12/28 06:48:25;;;;;;;5.35;1.00;;;9.00;99.90;;;;;;5014400;28;20046;-73
2022/12/28 06:50:54;;;;;;;5.22;1.15;;;9.00;99.90;;;;;;5023067;28;20025;-73
2022/12/28 06:53:20;;;;;;;2.15;0.93;;;8.90;99.90;;;;;;5019496;28;20092;-72
2022/12/28 06:55:56;;;;;;;4.18;0.90;;;8.90;99.90;;;;;;5022319;28;20046;-72
2022/12/28 06:58:23;;;;;;;4.43;0.90;;;8.90;99.90;;;;;;5022083;28;21869;-71
2022/12/28 07:00:49;;;;;;;2.75;1.95;;;8.90;99.90;;;;;;5022494;28;20033;-72
2022/12/28 07:03:14;;;;;;;2.60;1.00;;;8.80;99.90;;;;;;5018801;28;20543;-72
2022/12/28 07:05:40;;;;;;;2.42;0.85;;;8.90;99.90;;;;;;5020713;28;20061;-73
2022/12/28 07:08:06;;;;;;;2.90;0.55;;;8.90;99.90;;;;;;5018878;28;20041;-72
2022/12/28 07:10:32;;;;;;;1.95;0.93;;;8.90;99.90;;;;;;5018793;28;20072;-73
2022/12/28 07:12:58;;;;;;;2.78;1.42;;;9.00;99.90;;;;;;5022490;28;20406;-73
2022/12/28 07:15:23;;;;;;;2.50;0.60;;;9.00;99.90;;;;;;5017046;28;20033;-73
2022/12/28 07:17:49;;;;;;;2.63;1.38;;;9.00;99.90;;;;;;5022114;28;20037;-72
2022/12/28 07:20:15;;;;;;;1.90;0.80;;;9.00;99.90;;;;;;5012950;28;20402;-72
2022/12/28 07:22:41;;;;;;;2.17;1.05;;;9.00;99.90;;;;;;5018525;28;20061;-73
2022/12/28 07:25:07;;;;;;;2.38;0.70;;;9.10;99.90;;;;;;5014521;28;20041;-71
2022/12/28 07:27:34;;;;;;;1.75;0.70;;;9.10;99.90;;;;;;5014808;28;20068;-73
2022/12/28 07:30:00;;;;;;;1.65;0.80;;;9.10;99.90;;;;;;5009577;28;20096;-71
2022/12/28 07:32:25;;;;;;;4.43;0.90;;;9.20;99.90;;;;;;4987193;28;20042;-73
2022/12/28 07:34:51;;;;;;;1.50;0.80;;;9.20;99.90;;;;;;5016720;28;20064;-70
2022/12/28 07:37:16;;;;;;;6.82;0.93;;;9.20;99.90;;;;;;4998026;28;20034;-72
2022/12/28 07:39:42;;;;;;;4.18;0.82;;;9.10;99.90;;;;;;5018777;28;20040;-72
2022/12/28 07:42:10;;;;;;;3.90;0.65;;;9.10;99.90;;;;;;5015492;28;20092;-72
2022/12/28 07:44:36;;;;;;;1.67;0.63;;;9.20;99.90;;;;;;5019483;28;20041;-72
2022/12/28 07:47:01;;;;;;;2.47;0.52;;;9.20;99.90;;;;;;5017099;28;20062;-73
2022/12/28 07:49:27;;;;;;;1.55;0.75;;;9.20;99.90;;;;;;5016866;28;20033;-75
2022/12/28 07:51:53;;;;;;;7.43;0.85;;;9.20;99.90;;;;;;5020325;28;20049;-73
2022/12/28 07:54:18;;;;;;;3.40;1.13;;;9.20;99.90;;;;;;5013858;28;20029;-74
2022/12/28 07:56:44;;;;;;;2.35;0.68;;;9.20;99.90;;;;;;5015913;28;20034;-73
2022/12/28 07:59:12;;;;;;;4.30;0.75;;;9.20;99.90;;;;;;5011174;28;20116;-72
2022/12/28 08:01:38;;;;;;;4.85;0.63;;;9.20;99.90;;;;;;5010002;28;20034;-71
2022/12/28 08:04:06;;;;;;;2.70;0.85;;;9.30;99.90;;;;;;5017720;28;20492;-71
2022/12/28 08:06:35;;;;;;;1.30;1.00;;;9.40;99.90;;;;;;5000964;28;20033;-73
2022/12/28 08:09:00;;;;;;;2.05;0.77;;;9.30;99.90;;;;;;5016938;28;20111;-71
2022/12/28 08:11:32;;;;;;;3.25;1.15;;;9.30;99.90;;;;;;5000822;28;20402;-72
2022/12/28 08:13:58;;;;;;;1.58;0.68;;;9.40;99.90;;;;;;5017669;28;20038;-73
2022/12/28 08:16:26;;;;;;;5.75;0.98;;;9.40;99.90;;;;;;5005234;28;20038;-72
2022/12/28 08:18:53;;;;;;;1.95;0.80;;;9.40;99.90;;;;;;4988647;28;20053;-71
2022/12/28 08:21:21;;;;;;;4.63;1.15;;;9.30;99.90;;;;;;5005619;28;20038;-72
2022/12/28 08:23:47;;;;;;;2.55;0.90;;;9.40;99.90;;;;;;5007870;28;20052;-72
2022/12/28 08:26:19;;;;;;;1.75;0.75;;;9.40;99.90;;;;;;5006169;28;20132;-73
2022/12/28 08:28:47;;;;;;;2.20;0.98;;;9.40;99.90;;;;;;5004787;28;20037;-73
2022/12/28 08:31:18;;;;;;;4.30;1.00;;;9.40;99.90;;;;;;4986724;28;20522;-74
2022/12/28 08:33:44;;;;;;;3.65;0.65;;;9.40;99.90;;;;;;5006487;28;20053;-72
2022/12/28 08:36:10;;;;;;;1.98;1.23;;;9.50;99.90;;;;;;5005335;28;20037;-73
2022/12/28 08:38:38;;;;;;;2.70;1.20;;;9.50;99.90;;;;;;5009045;28;20486;-73
2022/12/28 08:41:06;;;;;;;3.90;0.90;;;9.50;99.90;;;;;;4990711;28;20088;-72
2022/12/28 08:43:32;;;;;;;2.55;0.93;;;9.50;99.90;;;;;;5008617;28;20410;-72
2022/12/28 08:46:02;;;;;;;6.97;1.85;;;9.60;99.90;;;;;;5006587;28;20434;-74
2022/12/28 08:48:28;;;;;;;2.58;1.60;;;9.60;99.90;;;;;;5003539;28;20030;-74
2022/12/28 08:50:59;;;;;;;6.03;1.50;;;9.60;99.90;;;;;;5005782;28;20056;-72
2022/12/28 08:53:24;;;;;;;5.85;1.30;;;9.60;99.90;;;;;;4986974;28;20042;-74
2022/12/28 08:55:50;;;;;;;3.17;1.20;;;9.60;99.90;;;;;;5006085;28;20088;-71
2022/12/28 08:58:17;;;;;;;3.78;1.45;;;9.60;99.90;;;;;;4987038;28;20034;-72
2022/12/28 09:00:43;;;;;;;4.57;1.80;;;9.70;99.90;;;;;;5005796;28;20034;-72
2022/12/28 09:03:08;;;;;;;4.53;1.80;;;9.60;99.90;;;;;;5004580;28;20034;-71
2022/12/28 09:05:38;;;;;;;4.50;1.85;;;9.60;99.90;;;;;;5005141;28;20474;-72
2022/12/28 09:08:04;;;;;;;3.47;1.65;;;9.60;99.90;;;;;;5009166;28;20037;-72
2022/12/28 09:10:30;;;;;;;5.40;1.83;;;9.50;99.90;;;;;;5010735;28;20034;-73
2022/12/28 09:12:56;;;;;;;3.78;1.83;;;9.50;99.90;;;;;;5010956;28;20069;-72
2022/12/28 09:15:23;;;;;;;4.13;1.80;;;9.60;99.90;;;;;;5009353;28;20149;-72
2022/12/28 09:17:48;;;;;;;3.85;1.70;;;9.60;99.90;;;;;;5015954;28;20805;-73
2022/12/28 09:20:14;;;;;;;6.22;1.67;;;9.60;99.90;;;;;;5017040;28;20121;-73
2022/12/28 09:22:39;;;;;;;3.22;2.00;;;9.60;99.90;;;;;;5018283;28;20053;-72
2022/12/28 09:25:05;;;;;;;7.15;2.15;;;9.60;99.90;;;;;;5017486;28;20417;-73
2022/12/28 09:27:31;;;;;;;5.35;1.73;;;9.60;99.90;;;;;;5015088;28;20041;-73
2022/12/28 09:29:57;;;;;;;8.23;2.00;;;9.60;99.90;;;;;;5014121;28;20033;-72
2022/12/28 09:32:22;;;;;;;2.47;1.48;;;9.60;99.90;;;;;;5015711;28;20037;-73
2022/12/28 09:34:48;;;;;;;8.80;1.65;;;9.60;99.90;;;;;;5009489;28;20494;-72
2022/12/28 09:37:14;;;;;;;2.78;1.30;;;9.60;99.90;;;;;;5001337;28;20041;-72
2022/12/28 09:39:39;;;;;;;2.50;1.50;;;9.60;99.90;;;;;;5017070;28;20030;-73
2022/12/28 09:42:11;;;;;;;8.02;1.52;;;9.70;99.90;;;;;;5018082;28;20042;-73
2022/12/28 09:44:59;;;;;;;4.78;1.95;;;9.70;99.90;;;;;;4998896;28;20033;-72
2022/12/28 09:47:57;;;;;;;2.63;1.33;;;9.70;99.90;;;;;;5013668;28;20042;-72
2022/12/28 09:50:34;;;;;;;7.38;1.80;;;9.70;99.90;;;;;;4979348;28;20510;-72
2022/12/28 09:53:25;;;;;;;4.50;1.40;;;9.70;99.90;;;;;;5017806;28;20136;-72
2022/12/28 09:55:59;;;;;;;2.38;1.25;;;9.70;99.90;;;;;;5012765;28;20041;-71
2022/12/28 09:58:27;;;;;;;3.38;1.20;;;9.70;99.90;;;;;;5016597;28;20068;-70
2022/12/28 10:00:57;;;;;;;3.40;1.35;;;9.70;99.90;;;;;;4999782;28;20025;-70
2022/12/28 10:03:26;;;;;;;7.82;1.30;;;9.80;99.90;;;;;;5017931;28;20531;-72
2022/12/28 10:05:54;;;;;;;2.22;0.90;;;9.80;99.90;;;;;;5017170;28;20477;-72
2022/12/28 10:08:22;;;;;;;2.65;0.80;;;9.80;99.90;;;;;;5015988;28;20038;-71
2022/12/28 10:10:50;;;;;;;4.75;1.25;;;9.80;99.90;;;;;;4998544;28;20048;-72
2022/12/28 10:13:18;;;;;;;4.30;0.95;;;9.80;99.90;;;;;;5016482;28;20405;-71
2022/12/28 10:15:44;;;;;;;3.20;1.10;;;9.90;99.90;;;;;;5013694;28;20045;-73
2022/12/28 10:18:13;;;;;;;3.50;1.35;;;9.90;99.90;;;;;;5015668;28;20030;-73
2022/12/28 10:20:41;;;;;;;2.42;1.10;;;9.90;99.90;;;;;;5022387;28;20060;-73
2022/12/28 10:23:13;;;;;;;4.30;1.10;;;9.90;99.90;;;;;;4999559;28;20045;-73
2022/12/28 10:25:39;;;;;;;3.65;0.80;;;10.00;99.90;;;;;;5001091;28;20030;-72
2022/12/28 10:28:07;;;;;;;4.30;1.52;;;9.90;99.90;;;;;;5017232;28;20098;-73
2022/12/28 10:30:44;;;;;;;2.08;1.00;;;9.90;99.90;;;;;;5022950;28;22725;-73
2022/12/28 10:33:18;;;;;;;4.20;1.20;;;9.90;99.90;;;;;;5019505;28;20033;-73
2022/12/28 10:35:53;;;;;;;4.78;1.55;;;9.90;99.90;;;;;;5015794;28;20156;-73
2022/12/28 10:38:30;;;;;;;5.32;0.93;;;9.90;99.90;;;;;;5016152;28;20066;-73
2022/12/28 10:41:04;;;;;;;2.70;1.30;;;9.90;99.90;;;;;;5021775;28;20079;-71
2022/12/28 10:43:35;;;;;;;4.63;1.20;;;9.90;99.90;;;;;;5020567;28;20041;-72
2022/12/28 10:46:02;;;;;;;5.50;1.30;;;9.90;99.90;;;;;;5020641;28;20034;-71
2022/12/28 10:48:35;;;;;;;3.65;1.00;;;9.80;99.90;;;;;;5020431;28;20034;-73
2022/12/28 10:51:11;;;;;;;2.95;1.95;;;9.70;99.90;;;;;;5020534;28;20076;-72
2022/12/28 10:53:53;;;;;;;5.78;1.92;;;9.60;99.90;;;;;;5018436;28;20029;-72
2022/12/28 10:56:22;;;;;;;5.93;2.28;;;9.60;99.90;;;;;;5016514;28;20525;-73
2022/12/28 10:58:50;;;;;;;6.35;1.80;;;9.50;99.90;;;;;;5022871;28;20038;-73
2022/12/28 11:01:28;;;;;;;4.07;1.58;;;9.50;99.90;;;;;;5014074;28;20525;-73
2022/12/28 11:04:06;;;;;;;5.22;1.58;;;9.50;99.90;;;;;;5018281;28;20041;-73
2022/12/28 11:06:55;;;;;;;4.15;1.65;;;9.50;99.90;;;;;;5015227;28;20133;-73
2022/12/28 11:09:30;;;;;;;3.88;1.27;;;9.40;99.90;;;;;;4977615;28;20073;-74
2022/12/28 11:12:21;;;;;;;4.30;1.60;;;9.40;99.90;;;;;;5012754;28;20232;-72
2022/12/28 11:14:47;;;;;;;3.10;2.17;;;9.40;99.90;;;;;;5008978;28;20425;-73
2022/12/28 11:17:20;;;;;;;3.88;1.13;;;9.40;99.90;;;;;;4990789;28;20026;-73
2022/12/28 11:19:49;;;;;;;4.97;1.20;;;9.40;99.90;;;;;;4991820;28;20061;-72
2022/12/28 11:22:21;;;;;;;2.55;1.27;;;9.40;99.90;;;;;;5008783;28;20096;-74
2022/12/28 11:24:47;;;;;;;3.53;1.63;;;9.50;99.90;;;;;;4990342;28;20036;-74
2022/12/28 11:27:17;;;;;;;7.38;1.30;;;9.40;99.90;;;;;;5008917;28;20025;-73
2022/12/28 11:29:45;;;;;;;6.93;1.23;;;9.40;99.90;;;;;;4990417;28;20726;-75
2022/12/28 11:32:21;;;;;;;4.63;1.80;;;9.40;99.90;;;;;;5006721;28;20030;-73
2022/12/28 11:34:48;;;;;;;4.55;0.70;;;9.40;99.90;;;;;;5004147;28;20048;-73
2022/12/28 11:37:14;;;;;;;4.47;1.10;;;9.40;99.90;;;;;;5006225;28;20050;-74
2022/12/28 11:39:43;;;;;;;2.83;1.20;;;9.30;99.90;;;;;;5008425;28;20083;-71
2022/12/28 11:42:09;;;;;;;4.70;1.35;;;9.30;99.90;;;;;;5005990;28;20025;-74
2022/12/28 11:44:38;;;;;;;5.50;1.17;;;9.30;99.90;;;;;;5012682;28;20058;-71
2022/12/28 11:47:15;;;;;;;2.50;1.02;;;9.30;99.90;;;;;;5020725;28;20549;-72
2022/12/28 11:49:42;;;;;;;2.78;1.15;;;9.30;99.90;;;;;;5011977;28;20070;-71
2022/12/28 11:52:22;;;;;;;4.72;0.93;;;9.30;99.90;;;;;;5012639;28;20069;-71
2022/12/28 11:54:57;;;;;;;2.85;1.38;;;9.30;99.90;;;;;;5015512;28;20041;-71
2022/12/28 11:57:35;;;;;;;3.28;1.20;;;9.30;99.90;;;;;;5019521;28;20041;-73
2022/12/28 12:00:16;;;;;;;4.30;1.60;;;9.30;99.90;;;;;;5020818;28;20041;-72
2022/12/28 12:02:46;;;;;;;;;;;9.30;99.90;;;;;;5014863;28;20042;-73
2022/12/28 12:05:36;;;;;;;3.80;1.05;;;9.30;99.90;;;;;;5020169;28;19927;-73
2022/12/28 12:08:11;;;;;;;3.55;1.38;;;9.30;99.90;;;;;;5020995;28;20030;-73
2022/12/28 12:10:38;;;;;;;3.88;1.10;;;9.30;99.90;;;;;;5011917;28;20068;-73
2022/12/28 12:13:25;;;;;;;3.60;1.20;;;9.20;99.90;;;;;;5020814;28;20563;-72
2022/12/28 12:15:57;;;;;;;2.95;1.17;;;9.20;99.90;;;;;;5016514;28;20057;-72
2022/12/28 12:18:26;;;;;;;2.92;0.95;;;9.20;99.90;;;;;;5018823;28;20037;-73
2022/12/28 12:21:01;;;;;;;8.32;1.42;;;9.10;99.90;;;;;;5019476;28;20107;-74
2022/12/28 12:23:39;;;;;;;9.70;1.10;;;9.20;99.90;;;;;;5017965;28;20033;-73
2022/12/28 12:26:44;;;;;;;3.25;1.25;;;9.10;99.90;;;;;;5013738;28;20102;-73
2022/12/28 12:29:24;;;;;;;3.38;1.00;;;9.20;99.90;;;;;;5016638;28;20520;-73
2022/12/28 12:31:56;;;;;;;;;;;9.20;99.90;;;;;;5017532;28;20105;-74
2022/12/28 12:34:45;;;;;;;7.82;1.92;;;9.20;99.90;;;;;;5012283;28;19917;-74
2022/12/28 12:37:19;;;;;;;6.18;0.98;;;9.20;99.90;;;;;;5014256;28;20033;-73
2022/12/28 12:39:55;;;;;;;4.70;1.40;;;9.20;99.90;;;;;;5019541;28;20387;-70
2022/12/28 12:42:43;;;;;;;4.00;1.02;;;9.20;99.90;;;;;;5014590;28;20034;-74
2022/12/28 12:45:14;;;;;;;4.97;0.98;;;9.20;99.90;;;;;;5016653;28;20049;-74
2022/12/28 12:47:43;;;;;;;2.22;0.82;;;9.30;99.90;;;;;;5020845;28;20028;-73
2022/12/28 12:50:41;;;;;;;6.90;1.63;;;9.30;99.90;;;;;;5016804;28;20060;-72
2022/12/28 12:53:41;;;;;;;1.95;1.00;;;9.30;99.90;;;;;;5013011;28;20030;-72
2022/12/28 12:56:11;;;;;;;4.37;1.43;;;9.30;99.90;;;;;;5017036;28;20046;-72
2022/12/28 12:59:05;;;;;;;5.43;1.05;;;9.30;99.90;;;;;;5013930;28;20371;-75
2022/12/28 13:01:39;;;;;;;3.63;1.25;;;9.30;99.90;;;;;;5013346;28;20037;-71
2022/12/28 13:04:19;;;;;;;4.25;1.23;;;9.40;99.90;;;;;;5004595;28;20094;-72
2022/12/28 13:06:45;;;;;;;9.50;1.70;;;9.40;99.90;;;;;;5011391;28;20640;-73
2022/12/28 13:09:17;;;;;;;5.15;1.23;;;9.40;99.90;;;;;;5018306;28;20120;-71
2022/12/28 13:11:43;;;;;;;7.43;2.80;;;9.40;99.90;;;;;;5011548;28;20038;-72
2022/12/28 13:14:20;;;;;;;8.68;1.25;;;9.40;99.90;;;;;;5007283;28;20026;-73
2022/12/28 13:16:54;;;;;;;5.60;1.40;;;9.40;99.90;;;;;;5012580;28;20103;-71
2022/12/28 13:19:29;;;;;;;6.85;1.30;;;9.40;99.90;;;;;;5006040;28;20034;-73
2022/12/28 13:21:56;;;;;;;10.20;2.33;;;9.50;99.90;;;;;;5006526;28;20061;-72
2022/12/28 13:24:33;;;;;;;5.70;1.60;;;9.40;99.90;;;;;;5005042;28;20148;-73
2022/12/28 13:27:00;;;;;;;4.28;1.20;;;9.40;99.90;;;;;;5009753;28;20026;-71
2022/12/28 13:29:31;;;;;;;6.85;1.75;;;9.50;99.90;;;;;;5014759;28;20785;-70
2022/12/28 13:31:57;;;;;;;6.13;1.42;;;9.40;99.90;;;;;;5015190;28;20030;-71
2022/12/28 13:34:23;;;;;;;3.38;1.20;;;9.50;99.90;;;;;;4994307;28;20921;-71
2022/12/28 13:36:53;;;;;;;3.67;1.23;;;9.50;99.90;;;;;;5015669;28;20120;-71
2022/12/28 13:39:19;;;;;;;5.68;1.35;;;9.50;99.90;;;;;;5014111;28;20034;-70